sensor_id;sensor_type;location;lat;lon;timestamp;pressure;altitude;pressure_sealevel;temperature
11424;BMP180;5768;51.476;7.210;2024-02-23T00:00:30;97474.00;;;8.40
11424;BMP180;5768;51.476;7.210;2024-02-23T00:05:32;97488.00;;;8.30
11424;BMP180;5768;51.476;7.210;2024-02-23T00:10:35;97513.00;;;8.40
11424;BMP180;5768;51.476;7.210;2024-02-23T00:15:38;97531.00;;;8.30
11424;BMP180;5768;51.476;7.210;2024-02-23T00:20:41;97549.00;;;8.30
11424;BMP180;5768;51.476;7.210;2024-02-23T00:25:43;97545.00;;;8.40
11424;BMP180;5768;51.476;7.210;2024-02-23T00:30:47;97577.00;;;8.60
11424;BMP180;5768;51.476;7.210;2024-02-23T00:35:49;97585.00;;;8.70
11424;BMP180;5768;51.476;7.210;2024-02-23T00:40:51;97584.00;;;8.60
11424;BMP180;5768;51.476;7.210;2024-02-23T00:45:55;97624.00;;;8.70
11424;BMP180;5768;51.476;7.210;2024-02-23T00:50:57;97621.00;;;8.80
11424;BMP180;5768;51.476;7.210;2024-02-23T00:55:59;97634.00;;;8.80
11424;BMP180;5768;51.476;7.210;2024-02-23T01:01:03;97617.00;;;8.80
11424;BMP180;5768;51.476;7.210;2024-02-23T01:06:06;97649.00;;;8.70
11424;BMP180;5768;51.476;7.210;2024-02-23T01:11:08;97636.00;;;8.70
11424;BMP180;5768;51.476;7.210;2024-02-23T01:16:11;97649.00;;;8.50
11424;BMP180;5768;51.476;7.210;2024-02-23T01:21:14;97658.00;;;8.50
11424;BMP180;5768;51.476;7.210;2024-02-23T01:26:16;97669.00;;;8.40
11424;BMP180;5768;51.476;7.210;2024-02-23T01:31:20;97674.00;;;8.30
11424;BMP180;5768;51.476;7.210;2024-02-23T01:36:22;97689.00;;;8.30
11424;BMP180;5768;51.476;7.210;2024-02-23T01:41:25;97672.00;;;8.40
11424;BMP180;5768;51.476;7.210;2024-02-23T01:46:29;97694.00;;;8.60
11424;BMP180;5768;51.476;7.210;2024-02-23T01:51:33;97698.00;;;8.70
11424;BMP180;5768;51.476;7.210;2024-02-23T01:56:36;97696.00;;;8.90
11424;BMP180;5768;51.476;7.210;2024-02-23T02:01:43;97693.00;;;9.00
11424;BMP180;5768;51.476;7.210;2024-02-23T02:06:47;97687.00;;;9.00
11424;BMP180;5768;51.476;7.210;2024-02-23T02:11:50;97712.00;;;8.90
11424;BMP180;5768;51.476;7.210;2024-02-23T02:16:54;97677.00;;;8.80
11424;BMP180;5768;51.476;7.210;2024-02-23T02:21:56;97676.00;;;8.70
11424;BMP180;5768;51.476;7.210;2024-02-23T02:26:59;97692.00;;;8.70
11424;BMP180;5768;51.476;7.210;2024-02-23T02:32:03;97720.00;;;8.70
11424;BMP180;5768;51.476;7.210;2024-02-23T02:37:05;97693.00;;;8.80
11424;BMP180;5768;51.476;7.210;2024-02-23T02:42:08;97715.00;;;8.90
11424;BMP180;5768;51.476;7.210;2024-02-23T02:47:12;97755.00;;;9.00
11424;BMP180;5768;51.476;7.210;2024-02-23T02:52:14;97744.00;;;8.90
11424;BMP180;5768;51.476;7.210;2024-02-23T02:57:17;97754.00;;;8.90
11424;BMP180;5768;51.476;7.210;2024-02-23T03:02:20;97776.00;;;8.80
11424;BMP180;5768;51.476;7.210;2024-02-23T03:07:22;97773.00;;;8.80
11424;BMP180;5768;51.476;7.210;2024-02-23T03:12:25;97761.00;;;8.80
11424;BMP180;5768;51.476;7.210;2024-02-23T03:17:28;97762.00;;;8.80
11424;BMP180;5768;51.476;7.210;2024-02-23T03:22:40;97778.00;;;8.60
11424;BMP180;5768;51.476;7.210;2024-02-23T03:27:42;97755.00;;;8.50
11424;BMP180;5768;51.476;7.210;2024-02-23T03:32:45;97789.00;;;8.50
11424;BMP180;5768;51.476;7.210;2024-02-23T03:37:48;97771.00;;;8.60
11424;BMP180;5768;51.476;7.210;2024-02-23T03:42:50;97785.00;;;8.70
11424;BMP180;5768;51.476;7.210;2024-02-23T03:47:54;97796.00;;;8.90
11424;BMP180;5768;51.476;7.210;2024-02-23T03:52:56;97820.00;;;9.00
11424;BMP180;5768;51.476;7.210;2024-02-23T03:57:58;97797.00;;;9.00
11424;BMP180;5768;51.476;7.210;2024-02-23T04:03:02;97804.00;;;9.00
11424;BMP180;5768;51.476;7.210;2024-02-23T04:08:06;97805.00;;;9.00
11424;BMP180;5768;51.476;7.210;2024-02-23T04:13:08;97815.00;;;9.00
11424;BMP180;5768;51.476;7.210;2024-02-23T04:18:12;97806.00;;;9.10
11424;BMP180;5768;51.476;7.210;2024-02-23T04:23:15;97816.00;;;9.10
11424;BMP180;5768;51.476;7.210;2024-02-23T04:28:17;97828.00;;;9.20
11424;BMP180;5768;51.476;7.210;2024-02-23T04:33:21;97829.00;;;9.10
11424;BMP180;5768;51.476;7.210;2024-02-23T04:38:23;97833.00;;;9.00
11424;BMP180;5768;51.476;7.210;2024-02-23T04:43:25;97838.00;;;9.00
11424;BMP180;5768;51.476;7.210;2024-02-23T04:48:28;97839.00;;;9.20
11424;BMP180;5768;51.476;7.210;2024-02-23T04:53:32;97850.00;;;9.20
11424;BMP180;5768;51.476;7.210;2024-02-23T04:58:37;97844.00;;;9.20
11424;BMP180;5768;51.476;7.210;2024-02-23T05:03:43;97855.00;;;9.20
11424;BMP180;5768;51.476;7.210;2024-02-23T05:08:50;97855.00;;;9.20
11424;BMP180;5768;51.476;7.210;2024-02-23T05:13:53;97867.00;;;9.20
11424;BMP180;5768;51.476;7.210;2024-02-23T05:18:56;97859.00;;;9.10
11424;BMP180;5768;51.476;7.210;2024-02-23T05:23:58;97859.00;;;9.10
11424;BMP180;5768;51.476;7.210;2024-02-23T05:29:01;97842.00;;;9.10
11424;BMP180;5768;51.476;7.210;2024-02-23T05:34:05;97853.00;;;9.10
11424;BMP180;5768;51.476;7.210;2024-02-23T05:39:08;97841.00;;;9.10
11424;BMP180;5768;51.476;7.210;2024-02-23T05:44:10;97849.00;;;9.10
11424;BMP180;5768;51.476;7.210;2024-02-23T05:49:15;97840.00;;;9.10
11424;BMP180;5768;51.476;7.210;2024-02-23T05:54:20;97840.00;;;9.00
11424;BMP180;5768;51.476;7.210;2024-02-23T05:59:23;97849.00;;;8.90
11424;BMP180;5768;51.476;7.210;2024-02-23T06:04:26;97827.00;;;8.60
11424;BMP180;5768;51.476;7.210;2024-02-23T06:09:33;97835.00;;;8.40
11424;BMP180;5768;51.476;7.210;2024-02-23T06:14:35;97836.00;;;8.30
11424;BMP180;5768;51.476;7.210;2024-02-23T06:19:42;97815.00;;;8.20
11424;BMP180;5768;51.476;7.210;2024-02-23T06:24:44;97825.00;;;8.20
11424;BMP180;5768;51.476;7.210;2024-02-23T06:29:47;97818.00;;;8.30
11424;BMP180;5768;51.476;7.210;2024-02-23T06:34:50;97823.00;;;8.50
11424;BMP180;5768;51.476;7.210;2024-02-23T06:39:55;97835.00;;;8.40
11424;BMP180;5768;51.476;7.210;2024-02-23T06:44:58;97824.00;;;8.40
11424;BMP180;5768;51.476;7.210;2024-02-23T06:50:04;97832.00;;;8.40
11424;BMP180;5768;51.476;7.210;2024-02-23T06:55:07;97821.00;;;8.40
11424;BMP180;5768;51.476;7.210;2024-02-23T07:00:14;97838.00;;;8.50
11424;BMP180;5768;51.476;7.210;2024-02-23T07:05:18;97836.00;;;8.50
11424;BMP180;5768;51.476;7.210;2024-02-23T07:10:34;97849.00;;;8.50
11424;BMP180;5768;51.476;7.210;2024-02-23T07:15:39;97833.00;;;8.50
11424;BMP180;5768;51.476;7.210;2024-02-23T07:20:56;97825.00;;;8.50
11424;BMP180;5768;51.476;7.210;2024-02-23T07:26:02;97837.00;;;8.60
11424;BMP180;5768;51.476;7.210;2024-02-23T07:31:04;97846.00;;;8.80
11424;BMP180;5768;51.476;7.210;2024-02-23T07:36:15;97850.00;;;8.90
11424;BMP180;5768;51.476;7.210;2024-02-23T07:41:22;97850.00;;;8.90
11424;BMP180;5768;51.476;7.210;2024-02-23T07:46:25;97822.00;;;8.90
11424;BMP180;5768;51.476;7.210;2024-02-23T07:51:31;97848.00;;;8.90
11424;BMP180;5768;51.476;7.210;2024-02-23T07:56:33;97854.00;;;9.20
11424;BMP180;5768;51.476;7.210;2024-02-23T08:01:36;97852.00;;;9.60
11424;BMP180;5768;51.476;7.210;2024-02-23T08:06:39;97867.00;;;9.90
11424;BMP180;5768;51.476;7.210;2024-02-23T08:11:42;97873.00;;;9.90
11424;BMP180;5768;51.476;7.210;2024-02-23T08:16:46;97873.00;;;10.10
11424;BMP180;5768;51.476;7.210;2024-02-23T08:21:52;97869.00;;;10.00
11424;BMP180;5768;51.476;7.210;2024-02-23T08:26:58;97885.00;;;10.00
11424;BMP180;5768;51.476;7.210;2024-02-23T08:32:04;97920.00;;;10.30
11424;BMP180;5768;51.476;7.210;2024-02-23T08:37:10;97893.00;;;10.50
11424;BMP180;5768;51.476;7.210;2024-02-23T08:42:13;97884.00;;;10.70
11424;BMP180;5768;51.476;7.210;2024-02-23T08:47:16;97876.00;;;10.60
11424;BMP180;5768;51.476;7.210;2024-02-23T08:52:24;97870.00;;;10.90
11424;BMP180;5768;51.476;7.210;2024-02-23T08:57:36;97879.00;;;11.10
11424;BMP180;5768;51.476;7.210;2024-02-23T09:02:39;97883.00;;;11.20
11424;BMP180;5768;51.476;7.210;2024-02-23T09:07:45;97890.00;;;11.30
11424;BMP180;5768;51.476;7.210;2024-02-23T09:12:47;97890.00;;;11.40
11424;BMP180;5768;51.476;7.210;2024-02-23T09:17:54;97885.00;;;11.40
11424;BMP180;5768;51.476;7.210;2024-02-23T09:23:01;97871.00;;;11.60
11424;BMP180;5768;51.476;7.210;2024-02-23T09:28:19;97900.00;;;11.70
11424;BMP180;5768;51.476;7.210;2024-02-23T09:33:22;97896.00;;;11.90
11424;BMP180;5768;51.476;7.210;2024-02-23T09:38:26;97900.00;;;11.80
11424;BMP180;5768;51.476;7.210;2024-02-23T09:43:33;97884.00;;;11.80
11424;BMP180;5768;51.476;7.210;2024-02-23T09:48:38;97912.00;;;11.70
11424;BMP180;5768;51.476;7.210;2024-02-23T09:53:42;97906.00;;;11.90
11424;BMP180;5768;51.476;7.210;2024-02-23T09:58:47;97921.00;;;11.90
11424;BMP180;5768;51.476;7.210;2024-02-23T10:04:00;97915.00;;;11.90
11424;BMP180;5768;51.476;7.210;2024-02-23T10:09:09;97930.00;;;12.20
11424;BMP180;5768;51.476;7.210;2024-02-23T10:14:13;97913.00;;;12.30
11424;BMP180;5768;51.476;7.210;2024-02-23T10:19:18;97899.00;;;12.30
11424;BMP180;5768;51.476;7.210;2024-02-23T10:24:26;97911.00;;;12.30
11424;BMP180;5768;51.476;7.210;2024-02-23T10:29:30;97911.00;;;12.50
11424;BMP180;5768;51.476;7.210;2024-02-23T10:34:35;97921.00;;;12.70
11424;BMP180;5768;51.476;7.210;2024-02-23T10:39:43;97926.00;;;12.70
11424;BMP180;5768;51.476;7.210;2024-02-23T10:44:48;97922.00;;;12.50
11424;BMP180;5768;51.476;7.210;2024-02-23T10:49:52;97939.00;;;12.70
11424;BMP180;5768;51.476;7.210;2024-02-23T10:54:57;97939.00;;;12.90
11424;BMP180;5768;51.476;7.210;2024-02-23T11:00:05;97932.00;;;13.20
11424;BMP180;5768;51.476;7.210;2024-02-23T11:05:14;97947.00;;;12.90
11424;BMP180;5768;51.476;7.210;2024-02-23T11:10:22;97940.00;;;12.70
11424;BMP180;5768;51.476;7.210;2024-02-23T11:15:30;97921.00;;;12.90
11424;BMP180;5768;51.476;7.210;2024-02-23T11:20:35;97918.00;;;13.10
11424;BMP180;5768;51.476;7.210;2024-02-23T11:26:08;97930.00;;;12.80
11424;BMP180;5768;51.476;7.210;2024-02-23T11:31:22;97928.00;;;12.70
11424;BMP180;5768;51.476;7.210;2024-02-23T11:36:32;97913.00;;;12.60
11424;BMP180;5768;51.476;7.210;2024-02-23T11:41:48;97924.00;;;12.70
11424;BMP180;5768;51.476;7.210;2024-02-23T11:46:51;97920.00;;;12.80
11424;BMP180;5768;51.476;7.210;2024-02-23T11:51:54;97926.00;;;12.70
11424;BMP180;5768;51.476;7.210;2024-02-23T11:56:58;97926.00;;;12.60
11424;BMP180;5768;51.476;7.210;2024-02-23T12:02:01;97925.00;;;12.40
11424;BMP180;5768;51.476;7.210;2024-02-23T12:07:38;97932.00;;;12.30
11424;BMP180;5768;51.476;7.210;2024-02-23T12:12:44;97936.00;;;12.20
11424;BMP180;5768;51.476;7.210;2024-02-23T12:17:48;97950.00;;;12.40
11424;BMP180;5768;51.476;7.210;2024-02-23T12:22:54;97931.00;;;12.40
11424;BMP180;5768;51.476;7.210;2024-02-23T12:27:59;97939.00;;;12.50
11424;BMP180;5768;51.476;7.210;2024-02-23T12:33:08;97939.00;;;12.40
11424;BMP180;5768;51.476;7.210;2024-02-23T12:38:11;97948.00;;;12.40
11424;BMP180;5768;51.476;7.210;2024-02-23T12:43:14;97954.00;;;12.40
11424;BMP180;5768;51.476;7.210;2024-02-23T12:48:17;97934.00;;;12.60
11424;BMP180;5768;51.476;7.210;2024-02-23T12:53:32;97943.00;;;12.90
11424;BMP180;5768;51.476;7.210;2024-02-23T12:58:40;97935.00;;;13.00
11424;BMP180;5768;51.476;7.210;2024-02-23T13:03:45;97940.00;;;13.20
11424;BMP180;5768;51.476;7.210;2024-02-23T13:08:48;97939.00;;;13.30
11424;BMP180;5768;51.476;7.210;2024-02-23T13:13:54;97943.00;;;13.20
11424;BMP180;5768;51.476;7.210;2024-02-23T13:18:57;97944.00;;;13.00
11424;BMP180;5768;51.476;7.210;2024-02-23T13:23:59;97955.00;;;13.00
11424;BMP180;5768;51.476;7.210;2024-02-23T13:29:05;97946.00;;;13.00
11424;BMP180;5768;51.476;7.210;2024-02-23T13:34:08;97959.00;;;12.90
11424;BMP180;5768;51.476;7.210;2024-02-23T13:39:11;97966.00;;;12.80
11424;BMP180;5768;51.476;7.210;2024-02-23T13:44:18;97964.00;;;12.70
11424;BMP180;5768;51.476;7.210;2024-02-23T13:49:20;97952.00;;;12.70
11424;BMP180;5768;51.476;7.210;2024-02-23T13:54:24;97962.00;;;12.70
11424;BMP180;5768;51.476;7.210;2024-02-23T13:59:28;97947.00;;;12.70
11424;BMP180;5768;51.476;7.210;2024-02-23T14:04:30;97956.00;;;12.60
11424;BMP180;5768;51.476;7.210;2024-02-23T14:09:33;97965.00;;;12.60
11424;BMP180;5768;51.476;7.210;2024-02-23T14:14:36;97941.00;;;12.70
11424;BMP180;5768;51.476;7.210;2024-02-23T14:19:39;97956.00;;;13.20
11424;BMP180;5768;51.476;7.210;2024-02-23T14:24:42;97950.00;;;13.10
11424;BMP180;5768;51.476;7.210;2024-02-23T14:29:46;97966.00;;;13.50
11424;BMP180;5768;51.476;7.210;2024-02-23T14:34:53;97981.00;;;13.90
11424;BMP180;5768;51.476;7.210;2024-02-23T14:39:58;97982.00;;;13.90
11424;BMP180;5768;51.476;7.210;2024-02-23T14:45:03;97971.00;;;13.70
11424;BMP180;5768;51.476;7.210;2024-02-23T14:50:07;97973.00;;;13.70
11424;BMP180;5768;51.476;7.210;2024-02-23T14:55:10;97965.00;;;13.60
11424;BMP180;5768;51.476;7.210;2024-02-23T15:00:16;97986.00;;;13.70
11424;BMP180;5768;51.476;7.210;2024-02-23T15:05:18;97980.00;;;13.60
11424;BMP180;5768;51.476;7.210;2024-02-23T15:10:21;97978.00;;;13.40
11424;BMP180;5768;51.476;7.210;2024-02-23T15:15:24;97972.00;;;13.40
11424;BMP180;5768;51.476;7.210;2024-02-23T15:20:27;97975.00;;;13.50
11424;BMP180;5768;51.476;7.210;2024-02-23T15:25:29;97988.00;;;13.40
11424;BMP180;5768;51.476;7.210;2024-02-23T15:30:32;97993.00;;;13.30
11424;BMP180;5768;51.476;7.210;2024-02-23T15:35:35;97985.00;;;13.30
11424;BMP180;5768;51.476;7.210;2024-02-23T15:40:37;97975.00;;;13.90
11424;BMP180;5768;51.476;7.210;2024-02-23T15:45:40;97986.00;;;13.90
11424;BMP180;5768;51.476;7.210;2024-02-23T15:50:44;97994.00;;;13.60
11424;BMP180;5768;51.476;7.210;2024-02-23T15:55:46;98006.00;;;13.60
11424;BMP180;5768;51.476;7.210;2024-02-23T16:00:50;98008.00;;;13.70
11424;BMP180;5768;51.476;7.210;2024-02-23T16:05:54;98002.00;;;13.40
11424;BMP180;5768;51.476;7.210;2024-02-23T16:10:57;98003.00;;;13.00
11424;BMP180;5768;51.476;7.210;2024-02-23T16:16:00;98015.00;;;12.90
11424;BMP180;5768;51.476;7.210;2024-02-23T16:21:04;98000.00;;;13.00
11424;BMP180;5768;51.476;7.210;2024-02-23T16:26:07;98008.00;;;12.50
11424;BMP180;5768;51.476;7.210;2024-02-23T16:31:10;98006.00;;;12.40
11424;BMP180;5768;51.476;7.210;2024-02-23T16:36:13;98015.00;;;12.40
11424;BMP180;5768;51.476;7.210;2024-02-23T16:41:16;98011.00;;;12.10
11424;BMP180;5768;51.476;7.210;2024-02-23T16:46:19;98011.00;;;11.90
11424;BMP180;5768;51.476;7.210;2024-02-23T16:51:25;97998.00;;;11.80
11424;BMP180;5768;51.476;7.210;2024-02-23T16:56:28;98013.00;;;11.90
11424;BMP180;5768;51.476;7.210;2024-02-23T17:01:33;98032.00;;;11.90
11424;BMP180;5768;51.476;7.210;2024-02-23T17:06:36;98026.00;;;11.50
11424;BMP180;5768;51.476;7.210;2024-02-23T17:11:39;97999.00;;;10.70
11424;BMP180;5768;51.476;7.210;2024-02-23T17:16:43;98044.00;;;10.30
11424;BMP180;5768;51.476;7.210;2024-02-23T17:21:46;98049.00;;;10.10
11424;BMP180;5768;51.476;7.210;2024-02-23T17:26:49;98040.00;;;9.90
11424;BMP180;5768;51.476;7.210;2024-02-23T17:31:53;98036.00;;;10.10
11424;BMP180;5768;51.476;7.210;2024-02-23T17:36:56;98034.00;;;10.40
11424;BMP180;5768;51.476;7.210;2024-02-23T17:41:58;98040.00;;;10.60
11424;BMP180;5768;51.476;7.210;2024-02-23T17:47:06;98030.00;;;10.80
11424;BMP180;5768;51.476;7.210;2024-02-23T17:52:08;98047.00;;;11.00
11424;BMP180;5768;51.476;7.210;2024-02-23T17:57:12;98051.00;;;11.10
11424;BMP180;5768;51.476;7.210;2024-02-23T18:02:16;98042.00;;;11.10
11424;BMP180;5768;51.476;7.210;2024-02-23T18:07:18;98048.00;;;11.20
11424;BMP180;5768;51.476;7.210;2024-02-23T18:12:21;98044.00;;;11.20
11424;BMP180;5768;51.476;7.210;2024-02-23T18:17:28;98060.00;;;11.40
11424;BMP180;5768;51.476;7.210;2024-02-23T18:22:30;98066.00;;;11.40
11424;BMP180;5768;51.476;7.210;2024-02-23T18:27:33;98080.00;;;11.40
11424;BMP180;5768;51.476;7.210;2024-02-23T18:32:37;98079.00;;;11.40
11424;BMP180;5768;51.476;7.210;2024-02-23T18:37:42;98070.00;;;11.10
11424;BMP180;5768;51.476;7.210;2024-02-23T18:42:44;98077.00;;;10.90
11424;BMP180;5768;51.476;7.210;2024-02-23T18:47:49;98050.00;;;10.90
11424;BMP180;5768;51.476;7.210;2024-02-23T18:52:51;98048.00;;;11.10
11424;BMP180;5768;51.476;7.210;2024-02-23T18:57:54;98060.00;;;11.00
11424;BMP180;5768;51.476;7.210;2024-02-23T19:03:03;98045.00;;;10.90
11424;BMP180;5768;51.476;7.210;2024-02-23T19:08:11;98084.00;;;10.80
11424;BMP180;5768;51.476;7.210;2024-02-23T19:13:20;98049.00;;;10.70
11424;BMP180;5768;51.476;7.210;2024-02-23T19:18:28;98084.00;;;10.50
11424;BMP180;5768;51.476;7.210;2024-02-23T19:23:31;98066.00;;;10.40
11424;BMP180;5768;51.476;7.210;2024-02-23T19:28:35;98090.00;;;10.30
11424;BMP180;5768;51.476;7.210;2024-02-23T19:33:41;98092.00;;;10.20
11424;BMP180;5768;51.476;7.210;2024-02-23T19:38:47;98087.00;;;10.10
11424;BMP180;5768;51.476;7.210;2024-02-23T19:43:52;98084.00;;;10.10
11424;BMP180;5768;51.476;7.210;2024-02-23T19:48:57;98092.00;;;10.10
11424;BMP180;5768;51.476;7.210;2024-02-23T19:54:00;98094.00;;;10.10
11424;BMP180;5768;51.476;7.210;2024-02-23T19:59:03;98105.00;;;10.20
11424;BMP180;5768;51.476;7.210;2024-02-23T20:04:07;98103.00;;;10.40
11424;BMP180;5768;51.476;7.210;2024-02-23T20:09:15;98107.00;;;10.40
11424;BMP180;5768;51.476;7.210;2024-02-23T20:14:20;98109.00;;;10.30
11424;BMP180;5768;51.476;7.210;2024-02-23T20:19:28;98108.00;;;10.20
11424;BMP180;5768;51.476;7.210;2024-02-23T20:24:31;98097.00;;;10.10
11424;BMP180;5768;51.476;7.210;2024-02-23T20:29:33;98098.00;;;10.10
11424;BMP180;5768;51.476;7.210;2024-02-23T20:34:37;98109.00;;;10.00
11424;BMP180;5768;51.476;7.210;2024-02-23T20:39:40;98112.00;;;10.00
11424;BMP180;5768;51.476;7.210;2024-02-23T20:44:43;98117.00;;;9.90
11424;BMP180;5768;51.476;7.210;2024-02-23T20:49:48;98127.00;;;9.80
11424;BMP180;5768;51.476;7.210;2024-02-23T20:54:54;98124.00;;;9.80
11424;BMP180;5768;51.476;7.210;2024-02-23T20:59:56;98121.00;;;9.90
11424;BMP180;5768;51.476;7.210;2024-02-23T21:05:00;98134.00;;;9.90
11424;BMP180;5768;51.476;7.210;2024-02-23T21:10:03;98134.00;;;9.80
11424;BMP180;5768;51.476;7.210;2024-02-23T21:15:09;98115.00;;;9.70
11424;BMP180;5768;51.476;7.210;2024-02-23T21:20:13;98115.00;;;9.60
11424;BMP180;5768;51.476;7.210;2024-02-23T21:25:17;98134.00;;;9.50
11424;BMP180;5768;51.476;7.210;2024-02-23T21:30:19;98111.00;;;9.40
11424;BMP180;5768;51.476;7.210;2024-02-23T21:35:23;98117.00;;;9.30
11424;BMP180;5768;51.476;7.210;2024-02-23T21:40:25;98131.00;;;9.30
11424;BMP180;5768;51.476;7.210;2024-02-23T21:45:27;98116.00;;;9.30
11424;BMP180;5768;51.476;7.210;2024-02-23T21:50:31;98130.00;;;9.20
11424;BMP180;5768;51.476;7.210;2024-02-23T21:55:33;98124.00;;;9.20
11424;BMP180;5768;51.476;7.210;2024-02-23T22:00:35;98126.00;;;9.20
11424;BMP180;5768;51.476;7.210;2024-02-23T22:05:39;98120.00;;;9.20
11424;BMP180;5768;51.476;7.210;2024-02-23T22:10:41;98136.00;;;9.20
11424;BMP180;5768;51.476;7.210;2024-02-23T22:15:43;98123.00;;;9.20
11424;BMP180;5768;51.476;7.210;2024-02-23T22:20:47;98124.00;;;9.20
11424;BMP180;5768;51.476;7.210;2024-02-23T22:25:49;98130.00;;;9.20
11424;BMP180;5768;51.476;7.210;2024-02-23T22:30:56;98130.00;;;9.30
11424;BMP180;5768;51.476;7.210;2024-02-23T22:36:04;98131.00;;;9.40
11424;BMP180;5768;51.476;7.210;2024-02-23T22:41:06;98122.00;;;9.50
11424;BMP180;5768;51.476;7.210;2024-02-23T22:46:08;98130.00;;;9.70
11424;BMP180;5768;51.476;7.210;2024-02-23T22:51:12;98132.00;;;9.80
11424;BMP180;5768;51.476;7.210;2024-02-23T22:56:15;98134.00;;;9.90
11424;BMP180;5768;51.476;7.210;2024-02-23T23:01:17;98132.00;;;9.80
11424;BMP180;5768;51.476;7.210;2024-02-23T23:06:21;98132.00;;;9.70
11424;BMP180;5768;51.476;7.210;2024-02-23T23:11:23;98131.00;;;9.60
11424;BMP180;5768;51.476;7.210;2024-02-23T23:16:25;98138.00;;;9.60
11424;BMP180;5768;51.476;7.210;2024-02-23T23:21:30;98139.00;;;9.70
11424;BMP180;5768;51.476;7.210;2024-02-23T23:26:32;98149.00;;;9.80
11424;BMP180;5768;51.476;7.210;2024-02-23T23:31:35;98156.00;;;10.00
11424;BMP180;5768;51.476;7.210;2024-02-23T23:36:39;98142.00;;;10.20
11424;BMP180;5768;51.476;7.210;2024-02-23T23:41:42;98151.00;;;10.20
11424;BMP180;5768;51.476;7.210;2024-02-23T23:46:45;98144.00;;;10.20
11424;BMP180;5768;51.476;7.210;2024-02-23T23:51:51;98147.00;;;10.10
11424;BMP180;5768;51.476;7.210;2024-02-23T23:56:54;98148.00;;;10.20
